createdAt,value
2022-08-27T00:01:42.515Z,86.62
2022-08-27T00:04:10.617Z,89.21
2022-08-27T00:06:38.678Z,89.35
2022-08-27T00:09:06.832Z,92.62
2022-08-27T00:11:34.788Z,91.21
2022-08-27T00:14:03.006Z,93.73
2022-08-27T00:16:31.031Z,100.00
2022-08-27T00:19:00.711Z,100.00
2022-08-27T00:21:28.691Z,100.00
2022-08-27T00:23:56.724Z,100.00
2022-08-27T00:26:24.738Z,100.00
2022-08-27T00:28:52.858Z,100.00
2022-08-27T00:31:27.147Z,100.00
2022-08-27T00:33:55.816Z,100.00
2022-08-27T00:36:25.351Z,100.00
2022-08-27T00:38:53.885Z,100.00
2022-08-27T00:41:22.282Z,100.00
2022-08-27T00:43:52.529Z,100.00
2022-08-27T00:46:23.658Z,100.00
2022-08-27T00:48:52.881Z,99.39
2022-08-27T00:51:22.248Z,98.47
2022-08-27T00:53:51.922Z,97.03
2022-08-27T00:56:21.525Z,97.86
2022-08-27T00:58:51.778Z,95.83
2022-08-27T01:01:26.215Z,94.20
2022-08-27T01:03:56.525Z,93.55
2022-08-27T01:06:25.444Z,95.94
2022-08-27T01:08:57.319Z,99.77
2022-08-27T01:11:25.989Z,99.70
2022-08-27T01:14:00.030Z,100.00
2022-08-27T01:16:31.332Z,100.00
2022-08-27T01:19:00.977Z,100.00
2022-08-27T01:21:31.683Z,100.00
2022-08-27T01:24:04.383Z,100.00
2022-08-27T01:26:33.789Z,100.00
2022-08-27T01:29:01.757Z,100.00
2022-08-27T01:31:29.906Z,100.00
2022-08-27T01:33:59.262Z,100.00
2022-08-27T01:36:27.358Z,100.00
2022-08-27T01:38:55.907Z,100.00
2022-08-27T01:41:25.569Z,100.00
2022-08-27T01:43:54.938Z,100.00
2022-08-27T01:46:23.239Z,100.00
2022-08-27T01:48:51.252Z,100.00
2022-08-27T01:51:19.617Z,100.00
2022-08-27T01:53:47.746Z,100.00
2022-08-27T01:56:15.765Z,100.00
2022-08-27T01:58:43.817Z,100.00
2022-08-27T02:01:14.065Z,100.00
2022-08-27T02:03:42.267Z,100.00
2022-08-27T02:06:11.445Z,100.00
2022-08-27T02:08:39.475Z,100.00
2022-08-27T02:11:08.332Z,100.00
2022-08-27T02:13:36.613Z,100.00
2022-08-27T02:16:05.329Z,100.00
2022-08-27T02:18:37.073Z,100.00
2022-08-27T02:21:05.420Z,100.00
2022-08-27T02:23:33.405Z,100.00
2022-08-27T02:26:01.608Z,100.00
2022-08-27T02:28:29.627Z,100.00
2022-08-27T02:30:57.631Z,100.00
2022-08-27T02:33:26.691Z,100.00
2022-08-27T02:35:56.099Z,100.00
2022-08-27T02:38:25.737Z,100.00
2022-08-27T02:40:54.643Z,100.00
2022-08-27T02:43:24.956Z,100.00
2022-08-27T02:45:53.705Z,100.00
2022-08-27T02:48:21.806Z,100.00
2022-08-27T02:50:49.826Z,100.00
2022-08-27T02:53:19.704Z,100.00
2022-08-27T02:55:47.867Z,100.00
2022-08-27T02:58:17.002Z,100.00
2022-08-27T03:00:45.266Z,100.00
2022-08-27T03:03:13.317Z,100.00
2022-08-27T03:05:41.362Z,100.00
2022-08-27T03:08:10.090Z,100.00
2022-08-27T03:10:40.104Z,100.00
2022-08-27T03:13:08.204Z,100.00
2022-08-27T03:15:36.185Z,100.00
2022-08-27T03:18:18.350Z,100.00
2022-08-27T03:20:47.675Z,100.00
2022-08-27T03:23:16.163Z,100.00
2022-08-27T03:25:46.567Z,100.00
2022-08-27T03:28:22.592Z,100.00
2022-08-27T03:30:52.260Z,100.00
2022-08-27T03:33:20.489Z,100.00
2022-08-27T03:35:51.666Z,100.00
2022-08-27T03:38:20.139Z,100.00
2022-08-27T03:40:50.352Z,100.00
2022-08-27T03:43:18.498Z,100.00
2022-08-27T03:45:52.932Z,100.00
2022-08-27T03:48:30.504Z,100.00
2022-08-27T03:50:58.500Z,100.00
2022-08-27T03:53:26.655Z,100.00
2022-08-27T03:55:56.052Z,100.00
2022-08-27T03:58:24.076Z,100.00
2022-08-27T04:00:52.092Z,100.00
2022-08-27T04:03:20.057Z,100.00
2022-08-27T04:05:52.807Z,100.00
2022-08-27T04:08:21.696Z,100.00
2022-08-27T04:10:50.003Z,100.00
2022-08-27T04:13:19.412Z,100.00
2022-08-27T04:15:48.269Z,100.00
2022-08-27T04:18:16.769Z,100.00
2022-08-27T04:20:44.889Z,100.00
2022-08-27T04:23:13.125Z,100.00
2022-08-27T04:25:41.501Z,100.00
2022-08-27T04:28:09.722Z,100.00
2022-08-27T04:30:41.502Z,100.00
2022-08-27T04:33:09.509Z,100.00
2022-08-27T04:35:37.904Z,100.00
2022-08-27T04:38:05.911Z,100.00
2022-08-27T04:40:47.981Z,100.00
2022-08-27T04:43:17.703Z,100.00
2022-08-27T04:45:48.076Z,100.00
2022-08-27T04:48:17.161Z,100.00
2022-08-27T04:50:46.293Z,100.00
2022-08-27T04:53:14.686Z,100.00
2022-08-27T04:55:44.392Z,100.00
2022-08-27T04:58:12.491Z,100.00
2022-08-27T05:00:44.391Z,100.00
2022-08-27T05:03:14.096Z,100.00
2022-08-27T05:05:42.892Z,100.00
2022-08-27T05:08:13.176Z,100.00
2022-08-27T05:10:42.507Z,100.00
2022-08-27T05:13:10.573Z,100.00
2022-08-27T05:15:38.608Z,100.00
2022-08-27T05:18:07.137Z,100.00
2022-08-27T05:20:42.314Z,100.00
2022-08-27T05:23:10.914Z,100.00
2022-08-27T05:25:39.543Z,97.75
2022-08-27T05:28:07.590Z,95.65
2022-08-27T05:30:38.675Z,92.65
2022-08-27T05:33:07.604Z,92.71
2022-08-27T05:35:42.412Z,90.34
2022-08-27T05:38:10.659Z,84.99
2022-08-27T05:40:38.870Z,82.23
2022-08-27T05:43:07.039Z,82.08
2022-08-27T05:45:35.184Z,80.48
2022-08-27T05:48:03.549Z,82.04
2022-08-27T05:50:31.613Z,78.52
2022-08-27T05:53:00.977Z,76.39
2022-08-27T05:55:29.060Z,74.84
2022-08-27T05:57:57.035Z,74.69
2022-08-27T06:00:42.462Z,75.55
2022-08-27T06:03:11.860Z,72.11
2022-08-27T06:05:40.011Z,69.46
2022-08-27T06:08:09.508Z,70.88
2022-08-27T06:10:41.134Z,69.80
2022-08-27T06:13:09.147Z,68.85
2022-08-27T06:15:37.291Z,69.07
2022-08-27T06:18:05.558Z,66.94
2022-08-27T06:20:33.650Z,66.41
2022-08-27T06:23:01.666Z,65.74
2022-08-27T06:25:32.317Z,63.59
2022-08-27T06:28:02.930Z,64.71
2022-08-27T06:30:30.944Z,64.15
2022-08-27T06:32:59.180Z,62.09
2022-08-27T06:35:30.137Z,55.63
2022-08-27T06:38:00.382Z,59.13
2022-08-27T06:40:28.473Z,54.98
2022-08-27T06:42:57.946Z,54.22
2022-08-27T06:45:25.979Z,51.86
2022-08-27T06:47:55.772Z,49.93
2022-08-27T06:50:27.166Z,47.08
2022-08-27T06:52:55.512Z,45.23
2022-08-27T06:55:23.593Z,42.50
2022-08-27T06:57:51.563Z,41.29
2022-08-27T07:00:22.271Z,41.19
2022-08-27T07:02:51.428Z,40.89
2022-08-27T07:05:19.666Z,40.13
2022-08-27T07:07:48.903Z,42.24
2022-08-27T07:10:17.042Z,42.42
2022-08-27T07:12:45.006Z,43.83
2022-08-27T07:15:13.718Z,44.96
2022-08-27T07:17:44.753Z,44.67
2022-08-27T07:20:12.827Z,44.73
2022-08-27T07:22:40.881Z,44.34
2022-08-27T07:25:10.907Z,43.62
2022-08-27T07:27:39.288Z,44.55
2022-08-27T07:30:08.672Z,45.29
2022-08-27T07:32:36.777Z,44.62
2022-08-27T07:35:09.498Z,44.97
2022-08-27T07:37:37.575Z,43.32
2022-08-27T07:40:06.507Z,44.67
2022-08-27T07:42:51.901Z,43.39
2022-08-27T07:45:19.949Z,45.29
2022-08-27T07:47:47.916Z,43.80
2022-08-27T07:50:17.525Z,42.92
2022-08-27T07:52:45.492Z,43.82
2022-08-27T07:55:13.567Z,43.37
2022-08-27T07:57:42.151Z,43.45
2022-08-27T08:00:11.142Z,43.01
2022-08-27T08:02:39.291Z,43.58
2022-08-27T08:05:07.980Z,42.66
2022-08-27T08:07:38.524Z,42.19
2022-08-27T08:10:07.828Z,41.40
2022-08-27T08:12:36.854Z,41.62
2022-08-27T08:15:05.252Z,42.73
2022-08-27T08:17:34.017Z,42.21
2022-08-27T08:20:21.459Z,42.62
2022-08-27T08:22:51.429Z,41.95
2022-08-27T08:25:19.637Z,42.03
2022-08-27T08:27:48.206Z,42.80
2022-08-27T08:30:16.189Z,42.86
2022-08-27T08:32:44.656Z,42.53
2022-08-27T08:35:12.845Z,42.13
2022-08-27T08:37:40.851Z,42.67
2022-08-27T08:40:11.756Z,42.93
2022-08-27T08:42:42.325Z,41.86
2022-08-27T08:45:16.448Z,42.80
2022-08-27T08:47:46.378Z,41.16
2022-08-27T08:50:19.949Z,41.97
2022-08-27T08:52:52.083Z,41.27
2022-08-27T08:55:31.959Z,42.65
2022-08-27T08:58:10.934Z,42.00
2022-08-27T09:00:40.562Z,42.97
2022-08-27T09:03:08.690Z,41.86
2022-08-27T09:05:37.352Z,41.15
2022-08-27T09:08:32.100Z,40.91
2022-08-27T09:11:00.908Z,41.11
2022-08-27T09:13:31.019Z,40.79
2022-08-27T09:16:01.111Z,39.33
2022-08-27T09:18:29.430Z,38.95
2022-08-27T09:21:08.816Z,39.14
2022-08-27T09:23:41.170Z,38.09
2022-08-27T09:26:20.583Z,39.98
2022-08-27T09:29:08.138Z,37.99
2022-08-27T09:31:37.338Z,38.74
2022-08-27T09:34:06.210Z,38.67
2022-08-27T09:36:34.235Z,38.12
2022-08-27T09:39:05.487Z,38.48
2022-08-27T09:41:39.080Z,38.07
2022-08-27T09:44:10.407Z,39.07
2022-08-27T09:46:38.425Z,36.66
2022-08-27T09:49:11.722Z,38.99
2022-08-27T09:51:41.143Z,36.51
2022-08-27T09:54:09.296Z,36.13
2022-08-27T09:56:41.344Z,35.18
2022-08-27T09:59:10.251Z,35.63
2022-08-27T10:01:39.703Z,35.60
2022-08-27T10:04:09.945Z,35.77
2022-08-27T10:06:38.563Z,34.59
2022-08-27T10:09:09.908Z,34.78
2022-08-27T10:11:41.538Z,32.88
2022-08-27T10:14:13.926Z,32.94
2022-08-27T10:16:47.774Z,33.37
2022-08-27T10:19:20.088Z,33.84
2022-08-27T10:21:50.335Z,33.55
2022-08-27T10:24:22.786Z,34.18
2022-08-27T10:26:53.691Z,33.37
2022-08-27T10:29:26.694Z,34.09
2022-08-27T10:32:01.426Z,33.44
2022-08-27T10:34:33.561Z,34.23
2022-08-27T10:37:11.710Z,33.85
2022-08-27T10:39:55.579Z,32.50
2022-08-27T10:42:27.824Z,31.24
2022-08-27T10:45:05.333Z,31.36
2022-08-27T10:47:56.768Z,31.30
2022-08-27T10:50:29.095Z,31.96
2022-08-27T10:53:01.004Z,32.21
2022-08-27T10:55:31.919Z,32.63
2022-08-27T10:58:18.648Z,30.99
2022-08-27T11:00:50.229Z,30.86
2022-08-27T11:03:22.126Z,30.26
2022-08-27T11:05:51.262Z,30.90
2022-08-27T11:08:21.073Z,29.20
2022-08-27T11:10:50.440Z,29.83
2022-08-27T11:13:21.883Z,31.45
2022-08-27T11:15:52.162Z,31.64
2022-08-27T11:18:21.959Z,31.11
2022-08-27T11:20:54.419Z,29.98
2022-08-27T11:23:24.810Z,30.00
2022-08-27T11:25:55.803Z,29.20
2022-08-27T11:28:32.036Z,29.01
2022-08-27T11:31:02.379Z,28.58
2022-08-27T11:33:33.913Z,28.76
2022-08-27T11:36:18.444Z,29.08
2022-08-27T11:38:50.040Z,29.25
2022-08-27T11:41:29.403Z,28.84
2022-08-27T11:44:11.711Z,27.74
2022-08-27T11:46:44.048Z,27.69
2022-08-27T11:49:12.134Z,26.36
2022-08-27T11:51:40.887Z,25.44
2022-08-27T11:54:10.753Z,25.64
2022-08-27T11:56:41.475Z,24.28
2022-08-27T11:59:21.648Z,23.93
2022-08-27T12:01:49.884Z,23.06
2022-08-27T12:04:33.795Z,21.46
2022-08-27T12:07:03.558Z,21.19
2022-08-27T12:09:41.702Z,20.93
2022-08-27T12:12:15.682Z,20.94
2022-08-27T12:14:47.232Z,21.17
2022-08-27T12:17:22.331Z,20.67
2022-08-27T12:19:57.678Z,21.63
2022-08-27T12:22:59.754Z,20.90
2022-08-27T12:25:27.884Z,21.03
2022-08-27T12:27:57.478Z,21.19
2022-08-27T12:30:31.237Z,22.77
2022-08-27T12:32:59.621Z,21.65
2022-08-27T12:35:30.813Z,22.20
2022-08-27T12:38:08.499Z,20.46
2022-08-27T12:40:40.344Z,19.93
2022-08-27T12:43:09.113Z,20.84
2022-08-27T12:45:44.500Z,20.93
2022-08-27T12:48:12.615Z,20.91
2022-08-27T12:50:40.817Z,20.92
2022-08-27T12:53:36.374Z,21.01
2022-08-27T12:56:13.431Z,20.47
2022-08-27T12:58:45.621Z,20.51
2022-08-27T13:01:26.740Z,21.32
2022-08-27T13:03:55.354Z,21.90
2022-08-27T13:06:24.372Z,22.75
2022-08-27T13:08:54.636Z,24.92
2022-08-27T13:11:25.272Z,25.95
2022-08-27T13:13:53.382Z,25.96
2022-08-27T13:16:23.045Z,26.91
2022-08-27T13:18:51.146Z,26.78
2022-08-27T13:21:21.496Z,28.09
2022-08-27T13:23:54.099Z,28.78
2022-08-27T13:26:23.063Z,28.51
2022-08-27T13:28:51.808Z,29.40
2022-08-27T13:31:22.771Z,29.55
2022-08-27T13:33:50.920Z,29.07
2022-08-27T13:36:27.763Z,29.41
2022-08-27T13:39:02.173Z,30.58
2022-08-27T13:41:31.816Z,30.18
2022-08-27T13:43:59.822Z,31.08
2022-08-27T13:46:31.015Z,30.61
2022-08-27T13:48:59.872Z,30.07
2022-08-27T13:51:29.567Z,30.56
2022-08-27T13:54:15.431Z,30.22
2022-08-27T13:56:57.603Z,30.24
2022-08-27T13:59:30.487Z,30.20
2022-08-27T14:02:02.015Z,30.63
2022-08-27T14:04:38.516Z,31.37
2022-08-27T14:07:12.953Z,30.32
2022-08-27T14:09:50.010Z,31.49
2022-08-27T14:12:32.785Z,31.60
2022-08-27T14:15:01.955Z,31.13
2022-08-27T14:17:38.225Z,31.93
2022-08-27T14:20:07.305Z,30.67
2022-08-27T14:22:37.400Z,30.34
2022-08-27T14:25:06.571Z,30.55
2022-08-27T14:27:36.297Z,30.36
2022-08-27T14:30:04.786Z,29.43
2022-08-27T14:32:34.177Z,30.58
2022-08-27T14:35:02.210Z,30.83
2022-08-27T14:37:33.020Z,30.99
2022-08-27T14:40:01.067Z,31.16
2022-08-27T14:42:29.137Z,30.45
2022-08-27T14:44:57.386Z,32.19
2022-08-27T14:47:31.118Z,30.94
2022-08-27T14:50:02.767Z,31.81
2022-08-27T14:52:30.800Z,32.87
2022-08-27T14:54:58.792Z,32.85
2022-08-27T14:57:26.892Z,33.49
2022-08-27T14:59:54.892Z,34.52
2022-08-27T15:02:23.318Z,34.10
2022-08-27T15:04:51.393Z,33.89
2022-08-27T15:07:22.736Z,33.11
2022-08-27T15:09:51.579Z,33.44
2022-08-27T15:12:26.042Z,34.34
2022-08-27T15:14:54.783Z,33.25
2022-08-27T15:17:35.171Z,34.07
2022-08-27T15:20:04.460Z,33.56
2022-08-27T15:22:34.282Z,33.79
2022-08-27T15:25:02.986Z,33.66
2022-08-27T15:27:38.669Z,34.79
2022-08-27T15:30:07.577Z,34.86
2022-08-27T15:32:36.782Z,33.34
2022-08-27T15:35:08.031Z,33.73
2022-08-27T15:37:37.429Z,34.47
2022-08-27T15:40:06.373Z,35.46
2022-08-27T15:42:34.402Z,34.20
2022-08-27T15:45:02.416Z,34.16
2022-08-27T15:47:30.426Z,34.54
2022-08-27T15:49:58.722Z,34.64
2022-08-27T15:52:36.412Z,34.58
2022-08-27T15:55:14.223Z,35.34
2022-08-27T15:57:42.260Z,35.06
2022-08-27T16:00:11.660Z,35.44
2022-08-27T16:02:39.871Z,36.10
2022-08-27T16:05:09.587Z,35.58
2022-08-27T16:07:37.585Z,35.60
2022-08-27T16:10:06.707Z,35.62
2022-08-27T16:12:36.258Z,35.63
2022-08-27T16:15:05.886Z,36.65
2022-08-27T16:17:33.919Z,37.27
2022-08-27T16:20:01.940Z,37.23
2022-08-27T16:22:30.086Z,37.04
2022-08-27T16:24:58.099Z,38.11
2022-08-27T16:27:26.216Z,38.40
2022-08-27T16:29:55.713Z,38.54
2022-08-27T16:32:25.916Z,39.34
2022-08-27T16:34:55.958Z,38.09
2022-08-27T16:37:24.408Z,39.07
2022-08-27T16:39:52.441Z,40.18
2022-08-27T16:42:20.752Z,40.72
2022-08-27T16:44:48.799Z,42.36
2022-08-27T16:47:18.179Z,43.94
2022-08-27T16:50:03.457Z,46.31
2022-08-27T16:52:31.485Z,48.21
2022-08-27T16:55:00.254Z,50.68
2022-08-27T16:57:28.420Z,52.12
2022-08-27T16:59:56.431Z,53.50
2022-08-27T17:02:30.769Z,56.20
2022-08-27T17:05:07.312Z,58.37
2022-08-27T17:07:48.963Z,60.91
2022-08-27T17:10:17.767Z,60.13
2022-08-27T17:12:46.309Z,63.00
2022-08-27T17:15:14.963Z,66.16
2022-08-27T17:17:44.425Z,69.57
2022-08-27T17:20:12.923Z,70.92
2022-08-27T17:22:40.892Z,71.74
2022-08-27T17:25:09.670Z,71.47
2022-08-27T17:27:37.675Z,73.29
2022-08-27T17:30:06.848Z,74.59
2022-08-27T17:32:37.302Z,76.33
2022-08-27T17:35:07.523Z,76.66
2022-08-27T17:37:35.728Z,73.91
2022-08-27T17:40:04.287Z,71.02
2022-08-27T17:42:32.406Z,71.61
2022-08-27T17:45:00.515Z,73.04
2022-08-27T17:47:29.936Z,72.11
2022-08-27T17:49:58.495Z,73.08
2022-08-27T17:52:27.904Z,75.35
2022-08-27T17:54:56.770Z,74.95
2022-08-27T17:57:25.975Z,74.45
2022-08-27T17:59:54.516Z,75.04
2022-08-27T18:02:24.888Z,75.38
2022-08-27T18:04:52.919Z,76.04
2022-08-27T18:07:20.986Z,75.99
2022-08-27T18:09:50.535Z,76.70
2022-08-27T18:12:20.369Z,79.36
2022-08-27T18:14:49.912Z,75.79
2022-08-27T18:17:17.938Z,76.43
2022-08-27T18:19:46.197Z,76.79
2022-08-27T18:22:18.657Z,76.11
2022-08-27T18:24:46.688Z,77.03
2022-08-27T18:27:16.022Z,77.51
2022-08-27T18:29:44.008Z,78.29
2022-08-27T18:32:12.449Z,78.16
2022-08-27T18:34:40.801Z,77.27
2022-08-27T18:37:08.921Z,77.45
2022-08-27T18:39:39.571Z,78.29
2022-08-27T18:42:07.790Z,80.16
2022-08-27T18:44:38.573Z,80.93
2022-08-27T18:47:06.860Z,78.93
2022-08-27T18:49:34.826Z,80.12
2022-08-27T18:52:02.859Z,79.81
2022-08-27T18:54:30.850Z,79.91
2022-08-27T18:56:58.854Z,79.37
2022-08-27T18:59:27.464Z,79.54
2022-08-27T19:01:57.190Z,80.49
2022-08-27T19:04:25.666Z,80.95
2022-08-27T19:06:53.621Z,79.23
2022-08-27T19:09:21.653Z,80.12
2022-08-27T19:11:51.584Z,81.31
2022-08-27T19:14:19.616Z,81.76
2022-08-27T19:16:48.533Z,81.16
2022-08-27T19:19:17.966Z,82.77
2022-08-27T19:21:51.162Z,81.34
2022-08-27T19:24:19.733Z,85.25
2022-08-27T19:26:47.828Z,84.01
2022-08-27T19:29:15.856Z,82.97
2022-08-27T19:31:43.881Z,82.89
2022-08-27T19:34:11.901Z,84.08
2022-08-27T19:36:42.706Z,83.46
2022-08-27T19:39:11.415Z,84.18
2022-08-27T19:41:39.483Z,83.79
2022-08-27T19:44:07.492Z,83.22
2022-08-27T19:46:36.772Z,83.63
2022-08-27T19:49:04.867Z,83.25
2022-08-27T19:51:32.994Z,83.55
2022-08-27T19:54:02.356Z,84.39
2022-08-27T19:56:32.727Z,83.13
2022-08-27T19:59:10.871Z,83.47
2022-08-27T20:01:41.774Z,84.59
2022-08-27T20:04:09.820Z,86.57
2022-08-27T20:06:37.949Z,85.92
2022-08-27T20:09:09.850Z,86.58
2022-08-27T20:11:37.846Z,86.39
2022-08-27T20:14:05.845Z,88.08
2022-08-27T20:16:38.332Z,85.76
2022-08-27T20:19:06.810Z,86.65
2022-08-27T20:21:34.811Z,86.44
2022-08-27T20:24:03.025Z,86.68
2022-08-27T20:26:33.074Z,87.06
2022-08-27T20:29:01.503Z,86.51
2022-08-27T20:31:30.387Z,85.32
2022-08-27T20:33:58.500Z,84.82
2022-08-27T20:36:28.409Z,85.67
2022-08-27T20:38:56.502Z,83.90
2022-08-27T20:41:24.573Z,83.51
2022-08-27T20:43:53.975Z,84.08
2022-08-27T20:46:22.995Z,82.80
2022-08-27T20:48:51.033Z,82.75
2022-08-27T20:51:19.046Z,83.61
2022-08-27T20:53:47.041Z,84.71
2022-08-27T20:56:15.167Z,83.69
2022-08-27T20:59:00.391Z,82.67
2022-08-27T21:01:29.865Z,83.26
2022-08-27T21:03:58.101Z,84.83
2022-08-27T21:06:26.650Z,86.59
2022-08-27T21:08:54.747Z,86.17
2022-08-27T21:11:22.780Z,86.38
2022-08-27T21:13:56.141Z,88.47
2022-08-27T21:16:25.164Z,87.92
2022-08-27T21:18:55.701Z,87.08
2022-08-27T21:21:23.764Z,86.35
2022-08-27T21:23:51.864Z,86.09
2022-08-27T21:26:22.193Z,86.19
2022-08-27T21:28:50.207Z,88.32
2022-08-27T21:31:23.992Z,85.89
2022-08-27T21:33:52.045Z,86.06
2022-08-27T21:36:21.531Z,87.67
2022-08-27T21:38:49.516Z,88.41
2022-08-27T21:41:17.521Z,89.47
2022-08-27T21:43:45.535Z,92.27
2022-08-27T21:46:13.579Z,94.97
2022-08-27T21:48:41.626Z,97.65
2022-08-27T21:51:10.027Z,100.00
2022-08-27T21:53:39.413Z,100.00
2022-08-27T21:56:07.685Z,100.00
2022-08-27T21:58:35.760Z,100.00
2022-08-27T22:01:05.506Z,100.00
2022-08-27T22:03:33.878Z,100.00
2022-08-27T22:06:01.856Z,100.00
2022-08-27T22:08:29.898Z,100.00
2022-08-27T22:10:59.463Z,100.00
2022-08-27T22:13:27.470Z,100.00
2022-08-27T22:15:55.522Z,100.00
2022-08-27T22:18:23.909Z,100.00
2022-08-27T22:20:52.159Z,100.00
2022-08-27T22:23:20.169Z,100.00
2022-08-27T22:25:48.968Z,100.00
2022-08-27T22:28:18.444Z,100.00
2022-08-27T22:30:46.770Z,100.00
2022-08-27T22:33:14.921Z,100.00
2022-08-27T22:35:42.995Z,100.00
2022-08-27T22:38:11.106Z,100.00
2022-08-27T22:40:39.405Z,100.00
2022-08-27T22:43:07.447Z,100.00
2022-08-27T22:45:36.819Z,100.00
2022-08-27T22:48:05.190Z,100.00
2022-08-27T22:50:33.306Z,100.00
2022-08-27T22:53:01.323Z,100.00
2022-08-27T22:55:29.393Z,100.00
2022-08-27T22:57:57.453Z,100.00
2022-08-27T23:00:26.582Z,100.00
2022-08-27T23:02:55.962Z,100.00
2022-08-27T23:05:24.650Z,100.00
2022-08-27T23:07:54.890Z,100.00
2022-08-27T23:10:24.191Z,100.00
2022-08-27T23:12:53.678Z,100.00
2022-08-27T23:15:22.794Z,100.00
2022-08-27T23:17:50.841Z,100.00
2022-08-27T23:20:21.882Z,100.00
2022-08-27T23:22:49.994Z,100.00
2022-08-27T23:25:35.588Z,100.00
2022-08-27T23:28:06.444Z,100.00
2022-08-27T23:30:34.941Z,100.00
2022-08-27T23:33:02.962Z,100.00
2022-08-27T23:35:32.334Z,100.00
2022-08-27T23:38:00.395Z,100.00
2022-08-27T23:40:28.528Z,100.00
2022-08-27T23:42:56.651Z,100.00
2022-08-27T23:45:25.944Z,100.00
2022-08-27T23:47:55.099Z,100.00
2022-08-27T23:50:26.395Z,100.00
2022-08-27T23:53:03.852Z,100.00
2022-08-27T23:55:32.469Z,100.00
2022-08-27T23:58:01.015Z,100.00
